Aeroporto :
LOGIN :

Iscrizione | Disclaimer

   EN    FR    IT 

 










Sommario :    VFR   VFR Marginale   IFR   IFR Intensivo   IFR Molto Intensivo
Visibilità : 
Base nubi : 
>= 8 km
>= 3000ft
5 / 8 km
1000 / 3000 ft
1500m / 5 km
500 / 1000 ft
800 / 1500m
200 / 500 ft
< 800m
< 200 ft
Simboli :   Temporali  Nebbia  Neve Forte  Precipitazioni Forti  Vento > 20 kt
SIGMETs :   Varie  Temporali  Ghiacco  Turbolenza  Onda orograficha  Ceneri Vulcaniche






- Altitudine del aeroporto : 313 ft
- Codice IATA : LEH


LFOH - Le Havre Octeville

ULTIMO METAR :
  • 171900Z AUTO 24014KT 9999 FEW029/// SCT043/// BKN054/// ///TCU 06/02 Q1022 TEMPO 27025G40KT 2000 TSRA BKN015 SCT025CB

METARs OBSOLETI :
  • 171830Z AUTO 25016KT 9999 ///CB 07/03 Q1021 TEMPO 27025G40KT 2000 TSRA
  • 171800Z AUTO 25015KT 9999 FEW046 SCT140 BKN170 07/04 Q1021 TEMPO 27025G40KT 2000 TSRA BKN015 SCT025CB
  • 171730Z AUTO 25018KT 9999 SCT038/// BKN170/// ///TCU 07/03 Q1021 TEMPO 27025G40KT 2000 TSRA BKN015 SCT025CB
  • 171700Z AUTO 26019KT 9999 FEW046/// SCT170/// BKN190/// ///TCU 07/03 Q1020 TEMPO 27025G40KT 2000 TSRA BKN015 SCT025CB
  • 171630Z AUTO 24014KT 9999 FEW028/// SCT052/// OVC130/// ///TCU 07/04 Q1020 TEMPO 27025G40KT 2000 TSRA BKN015 SCT025CB

TAF TAF LFOH
Valido dal 17 a 12 ore il 18 a 12 ore UTC


171100Z 1712/1812 26020G30KT 9999 SCT025
TEMPO 1713/1723 4000 SHRA BKN015 SCT025CB
PROB40
TEMPO 1713/1721 27025G40KT 2000 TSRA
BECMG 1723/1802 27005KT
BECMG 1805/1807 34010KT
ATIS : +33 2 35 54 64 93



MetMap, La meteo Aeronautica in un colpo d'occhio ! - Copyright ORBIFLY Dicembre 2007 - Disclaimer

ORBIFLY MET'MAP TEAM :

Programmazione e sviluppo : Alexandra Zaïnal
Concezione : Baudouin d'Aumeries
Aiuto per la programmazione : Marc-Olivier Méhu
Supporto tecnico e logistico : Manuel Goepfert
Aiuto per la traduzione : Arnaldo La Scala

Contatto : metmap@orbifly.com




FONTI E CREDITI :

   NOAA